sensor_id;sensor_type;location;lat;lon;timestamp;P1;durP1;ratioP1;P2;durP2;ratioP2
73239;SDS011;61452;40.054;4.110;2024-02-26T00:02:12;7.45;;;1.05;;
73239;SDS011;61452;40.054;4.110;2024-02-26T00:07:14;8.80;;;1.50;;
73239;SDS011;61452;40.054;4.110;2024-02-26T00:12:16;8.27;;;1.42;;
73239;SDS011;61452;40.054;4.110;2024-02-26T00:17:18;6.43;;;1.58;;
73239;SDS011;61452;40.054;4.110;2024-02-26T00:22:21;7.18;;;1.20;;
73239;SDS011;61452;40.054;4.110;2024-02-26T00:27:23;6.90;;;1.35;;
73239;SDS011;61452;40.054;4.110;2024-02-26T00:32:25;6.78;;;1.83;;
73239;SDS011;61452;40.054;4.110;2024-02-26T00:37:28;6.68;;;1.20;;
73239;SDS011;61452;40.054;4.110;2024-02-26T00:42:30;8.15;;;1.42;;
73239;SDS011;61452;40.054;4.110;2024-02-26T00:47:32;6.60;;;1.45;;
73239;SDS011;61452;40.054;4.110;2024-02-26T00:52:34;9.02;;;1.30;;
73239;SDS011;61452;40.054;4.110;2024-02-26T00:57:36;5.75;;;1.83;;
73239;SDS011;61452;40.054;4.110;2024-02-26T01:02:38;8.25;;;1.50;;
73239;SDS011;61452;40.054;4.110;2024-02-26T01:07:40;7.80;;;1.30;;
73239;SDS011;61452;40.054;4.110;2024-02-26T01:12:43;6.00;;;1.20;;
73239;SDS011;61452;40.054;4.110;2024-02-26T01:17:45;11.20;;;1.92;;
73239;SDS011;61452;40.054;4.110;2024-02-26T01:22:48;7.00;;;1.77;;
73239;SDS011;61452;40.054;4.110;2024-02-26T01:27:50;9.20;;;1.60;;
73239;SDS011;61452;40.054;4.110;2024-02-26T01:32:52;11.27;;;1.98;;
73239;SDS011;61452;40.054;4.110;2024-02-26T01:37:55;9.65;;;1.67;;
73239;SDS011;61452;40.054;4.110;2024-02-26T01:42:58;7.13;;;1.38;;
73239;SDS011;61452;40.054;4.110;2024-02-26T01:48:01;7.00;;;1.48;;
73239;SDS011;61452;40.054;4.110;2024-02-26T01:53:04;7.68;;;1.65;;
73239;SDS011;61452;40.054;4.110;2024-02-26T01:58:07;9.25;;;1.75;;
73239;SDS011;61452;40.054;4.110;2024-02-26T02:03:10;6.57;;;1.17;;
73239;SDS011;61452;40.054;4.110;2024-02-26T02:08:12;7.22;;;1.25;;
73239;SDS011;61452;40.054;4.110;2024-02-26T02:13:15;8.18;;;1.70;;
73239;SDS011;61452;40.054;4.110;2024-02-26T02:18:18;7.97;;;1.30;;
73239;SDS011;61452;40.054;4.110;2024-02-26T02:23:21;7.07;;;1.80;;
73239;SDS011;61452;40.054;4.110;2024-02-26T02:28:23;4.35;;;1.00;;
73239;SDS011;61452;40.054;4.110;2024-02-26T02:33:28;8.48;;;1.63;;
73239;SDS011;61452;40.054;4.110;2024-02-26T02:38:30;5.43;;;1.15;;
73239;SDS011;61452;40.054;4.110;2024-02-26T02:43:33;7.72;;;1.55;;
73239;SDS011;61452;40.054;4.110;2024-02-26T02:48:35;7.35;;;1.40;;
73239;SDS011;61452;40.054;4.110;2024-02-26T02:53:37;7.65;;;1.73;;
73239;SDS011;61452;40.054;4.110;2024-02-26T02:58:39;8.45;;;1.30;;
73239;SDS011;61452;40.054;4.110;2024-02-26T03:03:41;8.18;;;1.40;;
73239;SDS011;61452;40.054;4.110;2024-02-26T03:08:43;6.78;;;1.38;;
73239;SDS011;61452;40.054;4.110;2024-02-26T03:13:46;7.53;;;1.42;;
73239;SDS011;61452;40.054;4.110;2024-02-26T03:18:49;5.30;;;1.33;;
73239;SDS011;61452;40.054;4.110;2024-02-26T03:23:51;7.45;;;1.27;;
73239;SDS011;61452;40.054;4.110;2024-02-26T03:28:53;6.72;;;1.45;;
73239;SDS011;61452;40.054;4.110;2024-02-26T03:33:55;6.93;;;2.53;;
73239;SDS011;61452;40.054;4.110;2024-02-26T03:38:57;8.40;;;1.23;;
73239;SDS011;61452;40.054;4.110;2024-02-26T03:44:00;12.48;;;1.80;;
73239;SDS011;61452;40.054;4.110;2024-02-26T03:49:03;5.38;;;1.25;;
73239;SDS011;61452;40.054;4.110;2024-02-26T03:54:05;6.47;;;1.10;;
73239;SDS011;61452;40.054;4.110;2024-02-26T03:59:07;8.30;;;1.30;;
73239;SDS011;61452;40.054;4.110;2024-02-26T04:04:09;5.95;;;1.45;;
73239;SDS011;61452;40.054;4.110;2024-02-26T04:09:13;6.80;;;1.48;;
73239;SDS011;61452;40.054;4.110;2024-02-26T04:14:16;3.63;;;1.10;;
73239;SDS011;61452;40.054;4.110;2024-02-26T04:19:18;5.55;;;1.30;;
73239;SDS011;61452;40.054;4.110;2024-02-26T04:24:20;5.55;;;1.48;;
73239;SDS011;61452;40.054;4.110;2024-02-26T04:29:22;5.53;;;1.40;;
73239;SDS011;61452;40.054;4.110;2024-02-26T04:34:24;3.22;;;0.85;;
73239;SDS011;61452;40.054;4.110;2024-02-26T04:39:27;5.20;;;1.00;;
73239;SDS011;61452;40.054;4.110;2024-02-26T04:44:29;4.68;;;1.25;;
73239;SDS011;61452;40.054;4.110;2024-02-26T04:49:31;5.75;;;1.15;;
73239;SDS011;61452;40.054;4.110;2024-02-26T04:54:33;4.88;;;0.93;;
73239;SDS011;61452;40.054;4.110;2024-02-26T04:59:35;5.03;;;0.98;;
73239;SDS011;61452;40.054;4.110;2024-02-26T05:04:37;6.45;;;1.33;;
73239;SDS011;61452;40.054;4.110;2024-02-26T05:09:40;6.10;;;1.48;;
73239;SDS011;61452;40.054;4.110;2024-02-26T05:14:43;7.47;;;1.30;;
73239;SDS011;61452;40.054;4.110;2024-02-26T05:19:46;2.75;;;0.80;;
73239;SDS011;61452;40.054;4.110;2024-02-26T05:24:48;5.78;;;1.33;;
73239;SDS011;61452;40.054;4.110;2024-02-26T05:29:50;5.93;;;1.50;;
73239;SDS011;61452;40.054;4.110;2024-02-26T05:34:53;4.72;;;0.95;;
73239;SDS011;61452;40.054;4.110;2024-02-26T05:39:55;6.28;;;1.20;;
73239;SDS011;61452;40.054;4.110;2024-02-26T05:44:58;6.20;;;1.30;;
73239;SDS011;61452;40.054;4.110;2024-02-26T05:50:00;5.93;;;1.00;;
73239;SDS011;61452;40.054;4.110;2024-02-26T05:55:03;5.05;;;1.33;;
73239;SDS011;61452;40.054;4.110;2024-02-26T06:00:05;5.95;;;1.10;;
73239;SDS011;61452;40.054;4.110;2024-02-26T06:05:12;6.22;;;1.30;;
73239;SDS011;61452;40.054;4.110;2024-02-26T06:10:14;4.80;;;1.08;;
73239;SDS011;61452;40.054;4.110;2024-02-26T06:15:17;8.25;;;1.30;;
73239;SDS011;61452;40.054;4.110;2024-02-26T06:20:19;5.22;;;1.20;;
73239;SDS011;61452;40.054;4.110;2024-02-26T06:25:21;5.45;;;1.20;;
73239;SDS011;61452;40.054;4.110;2024-02-26T06:30:23;9.00;;;1.30;;
73239;SDS011;61452;40.054;4.110;2024-02-26T06:35:26;8.85;;;1.50;;
73239;SDS011;61452;40.054;4.110;2024-02-26T06:40:29;6.40;;;1.05;;
73239;SDS011;61452;40.054;4.110;2024-02-26T06:45:31;6.60;;;0.85;;
73239;SDS011;61452;40.054;4.110;2024-02-26T06:50:33;6.18;;;0.85;;
73239;SDS011;61452;40.054;4.110;2024-02-26T06:55:35;7.57;;;1.27;;
73239;SDS011;61452;40.054;4.110;2024-02-26T07:00:41;7.65;;;0.90;;
73239;SDS011;61452;40.054;4.110;2024-02-26T07:05:44;6.70;;;1.30;;
73239;SDS011;61452;40.054;4.110;2024-02-26T07:10:47;5.78;;;0.90;;
73239;SDS011;61452;40.054;4.110;2024-02-26T07:15:49;5.47;;;1.25;;
73239;SDS011;61452;40.054;4.110;2024-02-26T07:20:52;8.18;;;0.95;;
73239;SDS011;61452;40.054;4.110;2024-02-26T07:25:54;7.47;;;1.20;;
73239;SDS011;61452;40.054;4.110;2024-02-26T07:30:56;7.70;;;1.23;;
73239;SDS011;61452;40.054;4.110;2024-02-26T07:35:58;6.43;;;0.95;;
73239;SDS011;61452;40.054;4.110;2024-02-26T07:41:01;4.03;;;0.95;;
73239;SDS011;61452;40.054;4.110;2024-02-26T07:46:04;8.00;;;1.10;;
73239;SDS011;61452;40.054;4.110;2024-02-26T07:51:06;7.18;;;1.10;;
73239;SDS011;61452;40.054;4.110;2024-02-26T07:56:09;6.20;;;1.05;;
73239;SDS011;61452;40.054;4.110;2024-02-26T08:01:13;5.40;;;0.77;;
73239;SDS011;61452;40.054;4.110;2024-02-26T08:06:16;5.43;;;1.40;;
73239;SDS011;61452;40.054;4.110;2024-02-26T08:11:18;6.93;;;1.13;;
73239;SDS011;61452;40.054;4.110;2024-02-26T08:16:20;6.90;;;1.48;;
73239;SDS011;61452;40.054;4.110;2024-02-26T08:21:22;7.05;;;1.80;;
73239;SDS011;61452;40.054;4.110;2024-02-26T08:26:25;5.65;;;1.20;;
73239;SDS011;61452;40.054;4.110;2024-02-26T08:31:27;8.95;;;1.13;;
73239;SDS011;61452;40.054;4.110;2024-02-26T08:36:33;7.95;;;1.13;;
73239;SDS011;61452;40.054;4.110;2024-02-26T08:41:36;3.88;;;0.90;;
73239;SDS011;61452;40.054;4.110;2024-02-26T08:46:38;6.40;;;1.20;;
73239;SDS011;61452;40.054;4.110;2024-02-26T08:51:43;4.93;;;0.85;;
73239;SDS011;61452;40.054;4.110;2024-02-26T08:56:45;8.32;;;1.10;;
73239;SDS011;61452;40.054;4.110;2024-02-26T09:01:48;6.22;;;0.63;;
73239;SDS011;61452;40.054;4.110;2024-02-26T09:06:50;5.85;;;1.17;;
73239;SDS011;61452;40.054;4.110;2024-02-26T09:11:52;6.10;;;1.08;;
73239;SDS011;61452;40.054;4.110;2024-02-26T09:16:54;7.65;;;1.05;;
73239;SDS011;61452;40.054;4.110;2024-02-26T09:21:56;4.07;;;0.65;;
73239;SDS011;61452;40.054;4.110;2024-02-26T09:26:59;6.15;;;0.95;;
73239;SDS011;61452;40.054;4.110;2024-02-26T09:32:01;5.75;;;1.00;;
73239;SDS011;61452;40.054;4.110;2024-02-26T09:37:04;6.05;;;0.95;;
73239;SDS011;61452;40.054;4.110;2024-02-26T09:42:21;4.80;;;0.63;;
73239;SDS011;61452;40.054;4.110;2024-02-26T09:47:28;4.05;;;0.77;;
73239;SDS011;61452;40.054;4.110;2024-02-26T09:52:33;7.25;;;0.95;;
73239;SDS011;61452;40.054;4.110;2024-02-26T09:57:40;3.30;;;0.68;;
73239;SDS011;61452;40.054;4.110;2024-02-26T10:02:47;5.20;;;0.73;;
73239;SDS011;61452;40.054;4.110;2024-02-26T10:07:50;5.60;;;1.30;;
73239;SDS011;61452;40.054;4.110;2024-02-26T10:12:54;5.47;;;1.08;;
73239;SDS011;61452;40.054;4.110;2024-02-26T10:17:56;2.25;;;0.50;;
73239;SDS011;61452;40.054;4.110;2024-02-26T10:22:58;4.75;;;0.85;;
73239;SDS011;61452;40.054;4.110;2024-02-26T10:28:05;4.90;;;0.80;;
73239;SDS011;61452;40.054;4.110;2024-02-26T10:33:09;5.60;;;0.95;;
73239;SDS011;61452;40.054;4.110;2024-02-26T10:38:11;4.85;;;0.75;;
73239;SDS011;61452;40.054;4.110;2024-02-26T10:43:14;3.45;;;0.70;;
73239;SDS011;61452;40.054;4.110;2024-02-26T10:48:17;4.53;;;0.70;;
73239;SDS011;61452;40.054;4.110;2024-02-26T10:53:20;2.38;;;0.63;;
73239;SDS011;61452;40.054;4.110;2024-02-26T10:58:22;4.53;;;0.60;;
73239;SDS011;61452;40.054;4.110;2024-02-26T11:03:26;4.72;;;1.10;;
73239;SDS011;61452;40.054;4.110;2024-02-26T11:08:33;9.02;;;1.08;;
73239;SDS011;61452;40.054;4.110;2024-02-26T11:13:37;5.03;;;0.60;;
73239;SDS011;61452;40.054;4.110;2024-02-26T11:18:46;6.60;;;0.77;;
73239;SDS011;61452;40.054;4.110;2024-02-26T11:23:52;3.53;;;0.63;;
73239;SDS011;61452;40.054;4.110;2024-02-26T11:28:54;3.30;;;0.52;;
73239;SDS011;61452;40.054;4.110;2024-02-26T11:33:57;4.07;;;0.52;;
73239;SDS011;61452;40.054;4.110;2024-02-26T11:38:59;3.05;;;1.23;;
73239;SDS011;61452;40.054;4.110;2024-02-26T11:44:02;3.78;;;0.90;;
73239;SDS011;61452;40.054;4.110;2024-02-26T11:59:52;4.32;;;0.55;;
73239;SDS011;61452;40.054;4.110;2024-02-26T12:04:55;4.28;;;0.80;;
73239;SDS011;61452;40.054;4.110;2024-02-26T12:10:21;4.93;;;0.73;;
73239;SDS011;61452;40.054;4.110;2024-02-26T12:15:30;3.45;;;0.60;;
73239;SDS011;61452;40.054;4.110;2024-02-26T12:20:34;3.30;;;0.40;;
73239;SDS011;61452;40.054;4.110;2024-02-26T12:25:38;5.88;;;0.70;;
73239;SDS011;61452;40.054;4.110;2024-02-26T12:30:40;5.85;;;0.77;;
73239;SDS011;61452;40.054;4.110;2024-02-26T12:35:42;4.45;;;0.60;;
73239;SDS011;61452;40.054;4.110;2024-02-26T12:40:46;3.75;;;0.50;;
73239;SDS011;61452;40.054;4.110;2024-02-26T12:45:50;2.55;;;0.45;;
73239;SDS011;61452;40.054;4.110;2024-02-26T12:50:52;1.83;;;0.52;;
73239;SDS011;61452;40.054;4.110;2024-02-26T12:55:56;4.35;;;0.60;;
73239;SDS011;61452;40.054;4.110;2024-02-26T13:00:58;1.23;;;0.20;;
73239;SDS011;61452;40.054;4.110;2024-02-26T13:06:01;2.50;;;0.30;;
73239;SDS011;61452;40.054;4.110;2024-02-26T13:11:04;2.35;;;0.30;;
73239;SDS011;61452;40.054;4.110;2024-02-26T13:16:07;4.25;;;0.90;;
73239;SDS011;61452;40.054;4.110;2024-02-26T13:21:13;0.80;;;0.20;;
73239;SDS011;61452;40.054;4.110;2024-02-26T13:26:17;1.63;;;0.20;;
73239;SDS011;61452;40.054;4.110;2024-02-26T13:31:19;4.60;;;0.47;;
73239;SDS011;61452;40.054;4.110;2024-02-26T13:36:21;2.47;;;0.30;;
73239;SDS011;61452;40.054;4.110;2024-02-26T13:41:24;1.92;;;0.20;;
73239;SDS011;61452;40.054;4.110;2024-02-26T13:46:26;2.63;;;0.40;;
73239;SDS011;61452;40.054;4.110;2024-02-26T13:51:28;2.40;;;0.52;;
73239;SDS011;61452;40.054;4.110;2024-02-26T13:56:37;2.05;;;0.32;;
73239;SDS011;61452;40.054;4.110;2024-02-26T14:01:39;1.48;;;0.20;;
73239;SDS011;61452;40.054;4.110;2024-02-26T14:06:41;3.28;;;0.50;;
73239;SDS011;61452;40.054;4.110;2024-02-26T14:11:44;1.50;;;0.20;;
73239;SDS011;61452;40.054;4.110;2024-02-26T14:16:50;2.33;;;0.52;;
73239;SDS011;61452;40.054;4.110;2024-02-26T14:21:52;2.45;;;0.38;;
73239;SDS011;61452;40.054;4.110;2024-02-26T14:26:54;2.22;;;0.30;;
73239;SDS011;61452;40.054;4.110;2024-02-26T14:31:56;2.45;;;0.20;;
73239;SDS011;61452;40.054;4.110;2024-02-26T14:36:58;0.63;;;0.20;;
73239;SDS011;61452;40.054;4.110;2024-02-26T14:42:01;2.17;;;0.20;;
73239;SDS011;61452;40.054;4.110;2024-02-26T14:47:03;1.95;;;0.40;;
73239;SDS011;61452;40.054;4.110;2024-02-26T14:52:05;1.02;;;0.43;;
73239;SDS011;61452;40.054;4.110;2024-02-26T14:57:08;0.93;;;0.20;;
73239;SDS011;61452;40.054;4.110;2024-02-26T15:02:10;1.50;;;0.15;;
73239;SDS011;61452;40.054;4.110;2024-02-26T15:07:12;0.45;;;0.10;;
73239;SDS011;61452;40.054;4.110;2024-02-26T15:12:17;2.08;;;0.50;;
73239;SDS011;61452;40.054;4.110;2024-02-26T15:17:25;1.02;;;0.13;;
73239;SDS011;61452;40.054;4.110;2024-02-26T15:22:30;0.80;;;0.20;;
73239;SDS011;61452;40.054;4.110;2024-02-26T15:27:32;1.77;;;0.20;;
73239;SDS011;61452;40.054;4.110;2024-02-26T15:32:34;2.88;;;0.22;;
73239;SDS011;61452;40.054;4.110;2024-02-26T15:37:37;1.35;;;0.20;;
73239;SDS011;61452;40.054;4.110;2024-02-26T15:42:39;2.05;;;0.20;;
73239;SDS011;61452;40.054;4.110;2024-02-26T15:47:41;0.98;;;0.20;;
73239;SDS011;61452;40.054;4.110;2024-02-26T15:52:44;1.85;;;0.30;;
73239;SDS011;61452;40.054;4.110;2024-02-26T15:57:46;1.10;;;0.20;;
73239;SDS011;61452;40.054;4.110;2024-02-26T16:02:48;1.90;;;0.20;;
73239;SDS011;61452;40.054;4.110;2024-02-26T16:07:54;0.75;;;0.22;;
73239;SDS011;61452;40.054;4.110;2024-02-26T16:13:01;2.75;;;0.60;;
73239;SDS011;61452;40.054;4.110;2024-02-26T16:18:04;0.90;;;0.15;;
73239;SDS011;61452;40.054;4.110;2024-02-26T16:23:07;2.45;;;0.30;;
73239;SDS011;61452;40.054;4.110;2024-02-26T16:28:09;1.98;;;0.28;;
73239;SDS011;61452;40.054;4.110;2024-02-26T16:33:11;1.25;;;0.38;;
73239;SDS011;61452;40.054;4.110;2024-02-26T16:38:14;1.02;;;0.20;;
73239;SDS011;61452;40.054;4.110;2024-02-26T16:43:16;3.45;;;0.20;;
73239;SDS011;61452;40.054;4.110;2024-02-26T16:48:18;2.17;;;0.40;;
73239;SDS011;61452;40.054;4.110;2024-02-26T16:53:20;0.95;;;0.30;;
73239;SDS011;61452;40.054;4.110;2024-02-26T16:58:22;1.20;;;0.30;;
73239;SDS011;61452;40.054;4.110;2024-02-26T17:03:25;0.90;;;0.20;;
73239;SDS011;61452;40.054;4.110;2024-02-26T17:08:27;2.45;;;0.30;;
73239;SDS011;61452;40.054;4.110;2024-02-26T17:13:29;2.28;;;0.30;;
73239;SDS011;61452;40.054;4.110;2024-02-26T17:18:31;0.77;;;0.10;;
73239;SDS011;61452;40.054;4.110;2024-02-26T17:23:34;0.70;;;0.20;;
73239;SDS011;61452;40.054;4.110;2024-02-26T17:28:36;1.45;;;0.20;;
73239;SDS011;61452;40.054;4.110;2024-02-26T17:33:41;0.70;;;0.20;;
73239;SDS011;61452;40.054;4.110;2024-02-26T17:38:44;0.68;;;0.15;;
73239;SDS011;61452;40.054;4.110;2024-02-26T17:43:47;0.40;;;0.10;;
73239;SDS011;61452;40.054;4.110;2024-02-26T17:48:49;1.45;;;0.20;;
73239;SDS011;61452;40.054;4.110;2024-02-26T17:53:51;0.93;;;0.20;;
73239;SDS011;61452;40.054;4.110;2024-02-26T17:58:55;0.40;;;0.20;;
73239;SDS011;61452;40.054;4.110;2024-02-26T18:03:57;1.20;;;0.15;;
73239;SDS011;61452;40.054;4.110;2024-02-26T18:08:59;0.57;;;0.20;;
73239;SDS011;61452;40.054;4.110;2024-02-26T18:14:01;0.85;;;0.13;;
73239;SDS011;61452;40.054;4.110;2024-02-26T18:19:04;1.58;;;0.22;;
73239;SDS011;61452;40.054;4.110;2024-02-26T18:24:06;0.57;;;0.10;;
73239;SDS011;61452;40.054;4.110;2024-02-26T18:29:08;1.80;;;0.20;;
73239;SDS011;61452;40.054;4.110;2024-02-26T18:34:10;1.27;;;0.10;;
73239;SDS011;61452;40.054;4.110;2024-02-26T18:39:14;0.40;;;0.10;;
73239;SDS011;61452;40.054;4.110;2024-02-26T18:44:16;0.68;;;0.25;;
73239;SDS011;61452;40.054;4.110;2024-02-26T18:49:19;0.75;;;0.17;;
73239;SDS011;61452;40.054;4.110;2024-02-26T18:54:21;1.15;;;0.60;;
73239;SDS011;61452;40.054;4.110;2024-02-26T18:59:23;0.70;;;0.20;;
73239;SDS011;61452;40.054;4.110;2024-02-26T19:04:25;1.00;;;0.17;;
73239;SDS011;61452;40.054;4.110;2024-02-26T19:09:27;0.52;;;0.20;;
73239;SDS011;61452;40.054;4.110;2024-02-26T19:14:29;2.28;;;0.28;;
73239;SDS011;61452;40.054;4.110;2024-02-26T19:19:32;0.85;;;0.20;;
73239;SDS011;61452;40.054;4.110;2024-02-26T19:24:34;1.35;;;0.13;;
73239;SDS011;61452;40.054;4.110;2024-02-26T19:29:36;1.00;;;0.10;;
73239;SDS011;61452;40.054;4.110;2024-02-26T19:34:38;0.57;;;0.00;;
73239;SDS011;61452;40.054;4.110;2024-02-26T19:39:43;0.55;;;0.10;;
73239;SDS011;61452;40.054;4.110;2024-02-26T19:44:45;0.68;;;0.10;;
73239;SDS011;61452;40.054;4.110;2024-02-26T19:49:47;0.40;;;0.10;;
73239;SDS011;61452;40.054;4.110;2024-02-26T19:54:50;0.70;;;0.10;;
73239;SDS011;61452;40.054;4.110;2024-02-26T19:59:52;1.40;;;0.30;;
73239;SDS011;61452;40.054;4.110;2024-02-26T20:04:54;2.22;;;1.02;;
73239;SDS011;61452;40.054;4.110;2024-02-26T20:09:56;1.42;;;0.20;;
73239;SDS011;61452;40.054;4.110;2024-02-26T20:14:59;0.93;;;0.38;;
73239;SDS011;61452;40.054;4.110;2024-02-26T20:20:01;1.08;;;0.28;;
73239;SDS011;61452;40.054;4.110;2024-02-26T20:25:05;0.70;;;0.10;;
73239;SDS011;61452;40.054;4.110;2024-02-26T20:30:08;0.15;;;0.10;;
73239;SDS011;61452;40.054;4.110;2024-02-26T20:35:11;0.40;;;0.10;;
73239;SDS011;61452;40.054;4.110;2024-02-26T20:40:13;0.55;;;0.10;;
73239;SDS011;61452;40.054;4.110;2024-02-26T20:45:20;0.98;;;0.20;;
73239;SDS011;61452;40.054;4.110;2024-02-26T20:50:26;0.43;;;0.30;;
73239;SDS011;61452;40.054;4.110;2024-02-26T20:55:28;0.73;;;0.15;;
73239;SDS011;61452;40.054;4.110;2024-02-26T21:00:30;0.68;;;0.20;;
73239;SDS011;61452;40.054;4.110;2024-02-26T21:05:32;0.65;;;0.10;;
73239;SDS011;61452;40.054;4.110;2024-02-26T21:10:34;1.10;;;0.10;;
73239;SDS011;61452;40.054;4.110;2024-02-26T21:15:37;0.95;;;0.20;;
73239;SDS011;61452;40.054;4.110;2024-02-26T21:20:40;0.38;;;0.22;;
73239;SDS011;61452;40.054;4.110;2024-02-26T21:25:42;0.70;;;0.17;;
73239;SDS011;61452;40.054;4.110;2024-02-26T21:30:44;0.68;;;0.20;;
73239;SDS011;61452;40.054;4.110;2024-02-26T21:35:47;0.98;;;0.20;;
73239;SDS011;61452;40.054;4.110;2024-02-26T21:40:50;0.55;;;0.55;;
73239;SDS011;61452;40.054;4.110;2024-02-26T21:45:52;0.80;;;0.28;;
73239;SDS011;61452;40.054;4.110;2024-02-26T21:50:54;0.75;;;0.13;;
73239;SDS011;61452;40.054;4.110;2024-02-26T21:55:57;1.45;;;0.13;;
73239;SDS011;61452;40.054;4.110;2024-02-26T22:01:00;0.60;;;0.20;;
73239;SDS011;61452;40.054;4.110;2024-02-26T22:06:03;1.38;;;0.15;;
73239;SDS011;61452;40.054;4.110;2024-02-26T22:11:05;0.47;;;0.13;;
73239;SDS011;61452;40.054;4.110;2024-02-26T22:16:08;1.30;;;0.10;;
73239;SDS011;61452;40.054;4.110;2024-02-26T22:21:10;0.45;;;0.15;;
73239;SDS011;61452;40.054;4.110;2024-02-26T22:26:14;0.80;;;0.10;;
73239;SDS011;61452;40.054;4.110;2024-02-26T22:31:16;0.88;;;0.32;;
73239;SDS011;61452;40.054;4.110;2024-02-26T22:36:20;0.50;;;0.10;;
73239;SDS011;61452;40.054;4.110;2024-02-26T22:41:22;1.48;;;0.52;;
73239;SDS011;61452;40.054;4.110;2024-02-26T22:46:24;0.60;;;0.20;;
73239;SDS011;61452;40.054;4.110;2024-02-26T22:51:26;1.10;;;0.20;;
73239;SDS011;61452;40.054;4.110;2024-02-26T22:56:29;0.22;;;0.10;;
73239;SDS011;61452;40.054;4.110;2024-02-26T23:01:31;0.47;;;0.10;;
73239;SDS011;61452;40.054;4.110;2024-02-26T23:06:34;0.20;;;0.10;;
73239;SDS011;61452;40.054;4.110;2024-02-26T23:11:36;0.73;;;0.20;;
73239;SDS011;61452;40.054;4.110;2024-02-26T23:16:38;1.35;;;0.20;;
73239;SDS011;61452;40.054;4.110;2024-02-26T23:21:40;0.73;;;0.20;;
73239;SDS011;61452;40.054;4.110;2024-02-26T23:26:44;1.08;;;0.22;;
73239;SDS011;61452;40.054;4.110;2024-02-26T23:31:46;0.95;;;0.20;;
73239;SDS011;61452;40.054;4.110;2024-02-26T23:36:48;0.60;;;0.10;;
73239;SDS011;61452;40.054;4.110;2024-02-26T23:41:50;0.70;;;0.17;;
73239;SDS011;61452;40.054;4.110;2024-02-26T23:46:52;0.40;;;0.20;;
73239;SDS011;61452;40.054;4.110;2024-02-26T23:51:55;0.77;;;0.10;;
73239;SDS011;61452;40.054;4.110;2024-02-26T23:56:57;0.68;;;0.30;;
